createdAt,value
2022-12-01T00:01:01.086Z,61.37
2022-12-01T00:03:30.906Z,61.52
2022-12-01T00:06:02.614Z,60.72
2022-12-01T00:08:30.231Z,61.71
2022-12-01T00:11:08.809Z,61.22
2022-12-01T00:13:36.950Z,60.64
2022-12-01T00:16:15.201Z,60.49
2022-12-01T00:18:42.583Z,60.65
2022-12-01T00:21:17.523Z,61.47
2022-12-01T00:23:47.426Z,61.08
2022-12-01T00:26:15.952Z,60.08
2022-12-01T00:28:43.398Z,60.74
2022-12-01T00:31:12.138Z,60.46
2022-12-01T00:33:39.804Z,60.15
2022-12-01T00:36:07.322Z,59.49
2022-12-01T00:38:34.513Z,60.17
2022-12-01T00:41:01.788Z,59.97
2022-12-01T00:43:28.865Z,59.19
2022-12-01T00:46:22.498Z,59.08
2022-12-01T00:48:49.629Z,58.94
2022-12-01T00:51:16.656Z,59.21
2022-12-01T00:53:43.717Z,59.30
2022-12-01T00:56:10.828Z,59.22
2022-12-01T00:58:37.887Z,59.99
2022-12-01T01:01:05.159Z,59.50
2022-12-01T01:03:32.990Z,59.39
2022-12-01T01:06:08.975Z,59.95
2022-12-01T01:08:36.251Z,59.57
2022-12-01T01:11:04.193Z,59.74
2022-12-01T01:13:32.095Z,60.15
2022-12-01T01:16:08.644Z,60.24
2022-12-01T01:18:35.647Z,60.31
2022-12-01T01:21:06.346Z,59.68
2022-12-01T01:23:33.838Z,60.19
2022-12-01T01:26:06.355Z,59.69
2022-12-01T01:28:33.407Z,60.05
2022-12-01T01:31:04.483Z,59.99
2022-12-01T01:33:31.554Z,60.10
2022-12-01T01:36:02.479Z,59.57
2022-12-01T01:38:30.405Z,60.53
2022-12-01T01:40:57.806Z,59.32
2022-12-01T01:44:01.952Z,60.05
2022-12-01T01:46:33.949Z,60.34
2022-12-01T01:49:02.298Z,59.68
2022-12-01T01:51:39.777Z,59.39
2022-12-01T01:54:17.480Z,59.87
2022-12-01T02:01:15.883Z,60.21
2022-12-01T02:03:45.492Z,59.48
2022-12-01T02:06:12.629Z,59.80
2022-12-01T02:08:39.713Z,60.24
2022-12-01T02:11:48.439Z,59.95
2022-12-01T02:14:54.526Z,59.84
2022-12-01T02:17:41.392Z,59.84
2022-12-01T02:20:11.631Z,58.63
2022-12-01T02:23:12.910Z,58.48
2022-12-01T02:26:02.226Z,58.08
2022-12-01T02:28:35.118Z,58.66
2022-12-01T02:31:17.290Z,58.81
2022-12-01T02:33:53.465Z,58.57
2022-12-01T02:36:41.023Z,58.26
2022-12-01T02:39:17.532Z,59.09
2022-12-01T02:41:53.261Z,58.88
2022-12-01T02:44:36.310Z,58.91
2022-12-01T02:47:11.841Z,58.82
2022-12-01T02:49:49.617Z,58.16
2022-12-01T02:52:19.017Z,58.44
2022-12-01T02:54:48.499Z,58.29
2022-12-01T02:57:17.117Z,58.34
2022-12-01T02:59:50.180Z,58.42
2022-12-01T03:02:42.557Z,58.79
2022-12-01T03:05:15.433Z,59.26
2022-12-01T03:07:58.665Z,58.46
2022-12-01T03:10:41.593Z,58.24
2022-12-01T03:13:27.330Z,58.31
2022-12-01T03:16:17.803Z,58.40
2022-12-01T03:18:47.541Z,58.10
2022-12-01T03:21:23.702Z,58.68
2022-12-01T03:24:01.101Z,58.14
2022-12-01T03:26:32.841Z,58.68
2022-12-01T03:29:06.546Z,59.02
2022-12-01T03:31:39.651Z,58.63
2022-12-01T03:34:15.501Z,58.33
2022-12-01T03:36:47.804Z,58.26
2022-12-01T03:39:21.459Z,58.49
2022-12-01T03:42:04.132Z,58.44
2022-12-01T03:44:53.596Z,58.66
2022-12-01T03:47:23.820Z,58.75
2022-12-01T03:49:53.615Z,59.02
2022-12-01T03:52:40.519Z,58.94
2022-12-01T03:55:17.487Z,58.72
2022-12-01T03:57:50.301Z,58.79
2022-12-01T04:00:18.939Z,59.30
2022-12-01T04:02:46.110Z,59.22
2022-12-01T04:05:13.134Z,58.86
2022-12-01T04:07:40.720Z,58.95
2022-12-01T04:10:08.441Z,58.80
2022-12-01T04:12:35.585Z,58.96
2022-12-01T04:15:12.527Z,58.51
2022-12-01T04:17:43.365Z,58.78
2022-12-01T04:20:16.226Z,58.79
2022-12-01T04:22:43.647Z,58.27
2022-12-01T04:25:11.665Z,57.68
2022-12-01T04:27:39.989Z,58.32
2022-12-01T04:30:08.317Z,58.51
2022-12-01T04:32:40.057Z,58.21
2022-12-01T04:35:09.130Z,58.13
2022-12-01T04:37:36.179Z,58.13
2022-12-01T04:40:04.086Z,58.44
2022-12-01T04:42:31.379Z,58.74
2022-12-01T04:44:58.415Z,58.44
2022-12-01T04:47:25.465Z,57.56
2022-12-01T04:49:52.613Z,57.85
2022-12-01T04:52:19.512Z,58.03
2022-12-01T04:54:46.546Z,58.18
2022-12-01T04:57:26.192Z,58.54
2022-12-01T04:59:53.477Z,58.38
2022-12-01T05:02:20.558Z,59.28
2022-12-01T05:04:48.446Z,57.84
2022-12-01T05:07:15.554Z,57.43
2022-12-01T05:09:42.645Z,57.94
2022-12-01T05:12:09.699Z,58.28
2022-12-01T05:14:37.022Z,58.33
2022-12-01T05:17:06.849Z,58.67
2022-12-01T05:19:54.251Z,57.92
2022-12-01T05:22:36.709Z,58.55
2022-12-01T05:25:08.539Z,57.60
2022-12-01T05:27:38.075Z,58.10
2022-12-01T05:30:06.032Z,57.87
2022-12-01T05:32:32.932Z,57.53
2022-12-01T05:34:59.855Z,58.06
2022-12-01T05:37:26.838Z,58.11
2022-12-01T05:39:53.862Z,58.53
2022-12-01T05:42:21.004Z,57.70
2022-12-01T05:44:48.000Z,57.11
2022-12-01T05:47:15.098Z,57.38
2022-12-01T05:49:42.100Z,57.77
2022-12-01T05:52:09.102Z,57.99
2022-12-01T05:54:36.098Z,57.14
2022-12-01T05:57:03.114Z,57.48
2022-12-01T05:59:30.067Z,58.74
2022-12-01T06:01:59.514Z,57.52
2022-12-01T06:04:26.523Z,57.22
2022-12-01T06:06:53.534Z,57.71
2022-12-01T06:09:20.543Z,56.56
2022-12-01T06:11:52.264Z,56.78
2022-12-01T06:14:19.675Z,56.61
2022-12-01T06:16:46.610Z,56.51
2022-12-01T06:19:13.741Z,57.78
2022-12-01T06:21:40.775Z,55.69
2022-12-01T06:24:08.032Z,56.25
2022-12-01T06:26:34.935Z,55.21
2022-12-01T06:29:01.884Z,54.08
2022-12-01T06:31:31.516Z,54.21
2022-12-01T06:33:58.469Z,54.55
2022-12-01T06:36:25.434Z,54.41
2022-12-01T06:38:52.441Z,54.29
2022-12-01T06:41:24.509Z,53.75
2022-12-01T06:43:51.503Z,53.49
2022-12-01T06:46:18.688Z,53.32
2022-12-01T06:48:48.448Z,53.59
2022-12-01T06:51:15.315Z,52.62
2022-12-01T06:53:42.389Z,52.26
2022-12-01T06:56:09.464Z,52.60
2022-12-01T06:58:36.692Z,52.03
2022-12-01T07:01:11.041Z,51.78
2022-12-01T07:03:39.024Z,51.24
2022-12-01T07:06:06.551Z,51.71
2022-12-01T07:08:33.857Z,51.34
2022-12-01T07:11:05.576Z,51.16
2022-12-01T07:13:33.940Z,50.83
2022-12-01T07:16:04.962Z,50.34
2022-12-01T07:18:33.233Z,49.55
2022-12-01T07:21:22.148Z,50.00
2022-12-01T07:23:49.182Z,49.18
2022-12-01T07:26:18.217Z,48.54
2022-12-01T07:28:45.727Z,48.32
2022-12-01T07:31:15.899Z,48.39
2022-12-01T07:33:43.368Z,47.67
2022-12-01T07:36:14.182Z,47.70
2022-12-01T07:38:42.046Z,47.67
2022-12-01T07:41:21.975Z,47.78
2022-12-01T07:43:50.913Z,47.41
2022-12-01T07:46:23.695Z,46.67
2022-12-01T07:48:52.893Z,44.78
2022-12-01T07:51:20.820Z,44.23
2022-12-01T07:53:51.327Z,43.90
2022-12-01T07:56:19.207Z,43.13
2022-12-01T07:58:46.124Z,42.54
2022-12-01T08:01:19.518Z,41.69
2022-12-01T08:03:51.571Z,41.40
2022-12-01T08:06:20.749Z,39.32
2022-12-01T08:08:47.927Z,37.73
2022-12-01T08:11:23.743Z,37.07
2022-12-01T08:13:52.340Z,36.09
2022-12-01T08:16:21.381Z,35.50
2022-12-01T08:18:49.065Z,35.47
2022-12-01T08:21:19.486Z,34.19
2022-12-01T08:23:47.268Z,34.14
2022-12-01T08:26:16.934Z,34.84
2022-12-01T08:28:44.844Z,34.89
2022-12-01T08:31:19.716Z,35.01
2022-12-01T08:33:47.968Z,34.62
2022-12-01T08:36:18.576Z,35.13
2022-12-01T08:38:50.508Z,34.73
2022-12-01T08:41:18.211Z,34.05
2022-12-01T08:44:01.651Z,34.77
2022-12-01T08:46:33.479Z,35.74
2022-12-01T08:49:01.701Z,37.27
2022-12-01T08:51:31.383Z,38.63
2022-12-01T08:53:59.912Z,38.80
2022-12-01T08:56:36.344Z,39.81
2022-12-01T08:59:04.696Z,40.90
2022-12-01T09:01:33.211Z,40.47
2022-12-01T09:04:11.215Z,41.55
2022-12-01T09:06:46.585Z,41.70
2022-12-01T09:09:18.937Z,41.77
2022-12-01T09:11:47.076Z,43.50
2022-12-01T09:14:16.444Z,44.18
2022-12-01T09:16:47.190Z,44.09
2022-12-01T09:19:24.267Z,44.71
2022-12-01T09:21:52.005Z,44.53
2022-12-01T09:24:19.006Z,45.35
2022-12-01T09:26:48.400Z,45.45
2022-12-01T09:29:16.925Z,45.85
2022-12-01T09:31:44.481Z,47.03
2022-12-01T09:34:19.104Z,47.12
2022-12-01T09:36:49.682Z,47.02
2022-12-01T09:39:21.716Z,47.20
2022-12-01T09:42:09.283Z,47.26
2022-12-01T09:44:43.035Z,47.45
2022-12-01T09:47:26.486Z,47.94
2022-12-01T09:50:14.298Z,47.60
2022-12-01T09:52:47.822Z,48.11
2022-12-01T09:55:19.098Z,48.43
2022-12-01T09:57:52.570Z,48.84
2022-12-01T10:00:23.152Z,48.75
2022-12-01T10:03:06.101Z,48.44
2022-12-01T10:06:25.250Z,48.38
2022-12-01T10:09:16.329Z,48.44
2022-12-01T10:11:47.050Z,48.70
2022-12-01T10:14:20.100Z,49.66
2022-12-01T10:17:28.648Z,47.50
2022-12-01T10:20:14.299Z,45.15
2022-12-01T10:23:02.899Z,43.02
2022-12-01T10:25:51.296Z,41.61
2022-12-01T10:28:37.730Z,41.59
2022-12-01T10:31:23.572Z,40.92
2022-12-01T10:33:59.807Z,39.75
2022-12-01T10:36:30.971Z,38.42
2022-12-01T10:39:01.312Z,38.36
2022-12-01T10:41:32.815Z,38.09
2022-12-01T10:44:03.339Z,37.63
2022-12-01T10:46:42.225Z,36.55
2022-12-01T10:49:12.469Z,36.53
2022-12-01T10:51:54.276Z,36.87
2022-12-01T10:54:23.778Z,37.37
2022-12-01T10:57:10.193Z,39.29
2022-12-01T11:00:25.525Z,39.85
2022-12-01T11:03:56.233Z,41.64
2022-12-01T11:06:29.547Z,42.70
2022-12-01T11:09:01.927Z,43.15
2022-12-01T11:11:37.240Z,43.63
2022-12-01T11:14:46.807Z,44.20
2022-12-01T11:17:29.543Z,45.25
2022-12-01T11:19:57.148Z,45.37
2022-12-01T11:22:31.878Z,45.88
2022-12-01T11:25:02.020Z,46.21
2022-12-01T11:27:51.240Z,45.98
2022-12-01T11:30:25.244Z,46.39
2022-12-01T11:33:04.432Z,46.45
2022-12-01T11:35:35.233Z,47.52
2022-12-01T11:38:28.867Z,48.23
2022-12-01T11:40:58.626Z,48.51
2022-12-01T11:43:32.941Z,48.72
2022-12-01T11:46:10.521Z,49.30
2022-12-01T11:48:38.231Z,49.07
2022-12-01T11:51:20.071Z,49.75
2022-12-01T11:53:49.861Z,49.77
2022-12-01T11:56:22.698Z,49.86
2022-12-01T11:58:56.855Z,50.14
2022-12-01T12:01:46.112Z,50.32
2022-12-01T12:04:21.418Z,50.34
2022-12-01T12:07:13.621Z,51.12
2022-12-01T12:09:56.276Z,51.72
2022-12-01T12:12:50.708Z,51.17
2022-12-01T12:16:05.115Z,52.14
2022-12-01T12:19:01.787Z,52.05
2022-12-01T12:21:44.193Z,51.70
2022-12-01T12:24:38.184Z,52.99
2022-12-01T12:27:08.092Z,53.69
2022-12-01T12:29:53.253Z,53.47
2022-12-01T12:32:23.056Z,54.00
2022-12-01T12:35:24.528Z,54.26
2022-12-01T12:37:57.377Z,54.06
2022-12-01T12:40:33.401Z,53.81
2022-12-01T12:43:23.110Z,54.67
2022-12-01T12:46:11.100Z,54.81
2022-12-01T12:49:18.659Z,54.17
2022-12-01T12:52:08.982Z,54.28
2022-12-01T12:54:46.497Z,54.74
2022-12-01T12:57:36.932Z,54.77
2022-12-01T13:00:17.106Z,54.96
2022-12-01T13:02:50.782Z,55.59
2022-12-01T13:05:34.114Z,55.29
2022-12-01T13:08:04.096Z,55.45
2022-12-01T13:10:44.939Z,54.82
2022-12-01T13:13:15.537Z,55.15
2022-12-01T13:15:44.572Z,55.20
2022-12-01T13:18:29.711Z,55.09
2022-12-01T13:20:58.741Z,55.42
2022-12-01T13:23:27.155Z,55.94
2022-12-01T13:25:57.623Z,56.50
2022-12-01T13:28:29.468Z,56.90
2022-12-01T13:31:04.802Z,55.91
2022-12-01T13:33:33.679Z,55.58
2022-12-01T13:36:38.176Z,55.78
2022-12-01T13:39:01.851Z,56.66
2022-12-01T13:41:40.357Z,56.00
2022-12-01T13:44:18.549Z,56.17
2022-12-01T13:46:47.883Z,55.55
2022-12-01T13:49:40.804Z,55.74
2022-12-01T13:52:23.385Z,55.66
2022-12-01T13:55:14.434Z,55.49
2022-12-01T13:58:09.854Z,55.71
2022-12-01T14:00:37.378Z,55.88
2022-12-01T14:03:19.842Z,55.49
2022-12-01T14:05:53.681Z,55.55
2022-12-01T14:08:29.553Z,55.44
2022-12-01T14:11:26.893Z,55.91
2022-12-01T14:14:26.053Z,55.63
2022-12-01T14:16:58.780Z,55.42
2022-12-01T14:19:47.161Z,55.44
2022-12-01T14:23:00.088Z,55.38
2022-12-01T14:25:30.729Z,56.01
2022-12-01T14:28:16.037Z,56.33
2022-12-01T14:30:46.121Z,56.71
2022-12-01T14:34:15.740Z,56.96
2022-12-01T14:37:03.407Z,56.66
2022-12-01T14:39:45.983Z,57.21
2022-12-01T14:42:51.930Z,56.79
2022-12-01T14:45:27.715Z,56.93
2022-12-01T14:48:26.059Z,56.10
2022-12-01T14:51:28.537Z,56.23
2022-12-01T14:54:11.457Z,56.05
2022-12-01T14:56:43.898Z,56.33
2022-12-01T14:59:27.658Z,56.22
2022-12-01T15:02:17.478Z,56.30
2022-12-01T15:05:12.227Z,57.17
2022-12-01T15:07:46.593Z,57.63
2022-12-01T15:10:27.857Z,57.51
2022-12-01T15:12:58.268Z,57.84
2022-12-01T15:15:53.632Z,57.59
2022-12-01T15:18:54.240Z,57.63
2022-12-01T15:21:26.025Z,57.58
2022-12-01T15:24:00.033Z,57.67
2022-12-01T15:30:59.714Z,58.01
2022-12-01T15:33:37.217Z,57.79
2022-12-01T15:36:13.072Z,57.91
2022-12-01T15:38:53.419Z,57.75
2022-12-01T15:41:30.958Z,57.85
2022-12-01T15:44:05.568Z,58.45
2022-12-01T15:46:34.927Z,59.10
2022-12-01T15:49:16.235Z,58.92
2022-12-01T15:51:43.675Z,58.48
2022-12-01T15:54:28.762Z,58.03
2022-12-01T15:56:59.168Z,56.34
2022-12-01T15:59:37.539Z,56.08
2022-12-01T16:02:12.751Z,55.64
2022-12-01T16:04:40.559Z,56.75
2022-12-01T16:07:11.297Z,57.15
2022-12-01T16:09:50.806Z,56.83
2022-12-01T16:12:27.722Z,56.86
2022-12-01T16:15:00.810Z,56.44
2022-12-01T16:17:40.752Z,56.51
2022-12-01T16:20:18.710Z,56.27
2022-12-01T16:22:47.866Z,56.14
2022-12-01T16:25:27.748Z,56.19
2022-12-01T16:27:56.843Z,56.41
2022-12-01T16:30:29.944Z,56.42
2022-12-01T16:33:17.870Z,56.22
2022-12-01T16:35:45.549Z,56.82
2022-12-01T16:38:22.906Z,56.73
2022-12-01T16:40:55.904Z,56.75
2022-12-01T16:43:26.752Z,57.30
2022-12-01T16:46:03.401Z,57.08
2022-12-01T16:48:31.820Z,56.70
2022-12-01T16:51:03.927Z,57.05
2022-12-01T16:53:34.286Z,57.47
2022-12-01T16:56:03.580Z,57.60
2022-12-01T16:58:31.305Z,57.92
2022-12-01T17:01:01.320Z,58.63
2022-12-01T17:03:36.066Z,57.92
2022-12-01T17:06:49.375Z,57.95
2022-12-01T17:09:16.510Z,58.27
2022-12-01T17:11:43.939Z,58.79
2022-12-01T17:14:23.711Z,58.69
2022-12-01T17:17:12.072Z,58.14
2022-12-01T17:19:47.571Z,58.86
2022-12-01T17:22:38.429Z,60.35
2022-12-01T17:25:08.967Z,59.73
2022-12-01T17:27:37.892Z,59.88
2022-12-01T17:30:45.219Z,60.36
2022-12-01T17:38:07.779Z,60.14
2022-12-01T17:41:25.844Z,61.55
2022-12-01T17:44:05.831Z,61.03
2022-12-01T17:46:33.211Z,61.16
2022-12-01T17:49:01.530Z,61.06
2022-12-01T17:51:47.519Z,61.31
2022-12-01T17:54:15.121Z,61.02
2022-12-01T17:56:43.541Z,60.57
2022-12-01T17:59:18.990Z,60.79
2022-12-01T18:01:54.361Z,60.42
2022-12-01T18:04:26.356Z,60.89
2022-12-01T18:06:54.562Z,60.89
2022-12-01T18:09:22.004Z,60.54
2022-12-01T18:11:49.630Z,61.40
2022-12-01T18:14:18.005Z,61.26
2022-12-01T18:21:19.572Z,60.85
2022-12-01T18:24:02.932Z,61.49
2022-12-01T18:26:33.042Z,60.69
2022-12-01T18:29:08.887Z,60.95
2022-12-01T18:31:40.313Z,59.71
2022-12-01T18:34:09.144Z,59.98
2022-12-01T18:36:39.103Z,60.70
2022-12-01T18:39:08.289Z,60.70
2022-12-01T18:46:23.062Z,59.23
2022-12-01T18:50:18.256Z,58.90
2022-12-01T18:52:54.269Z,59.53
2022-12-01T18:55:21.390Z,59.43
2022-12-01T18:57:48.604Z,60.02
2022-12-01T19:00:51.217Z,59.45
2022-12-01T19:07:48.705Z,59.21
2022-12-01T19:10:16.174Z,59.89
2022-12-01T19:12:43.486Z,58.97
2022-12-01T19:15:17.098Z,59.35
2022-12-01T19:17:44.571Z,58.84
2022-12-01T19:20:14.475Z,58.79
2022-12-01T19:22:41.509Z,58.83
2022-12-01T19:25:13.775Z,58.18
2022-12-01T19:27:41.049Z,58.71
2022-12-01T19:30:09.875Z,58.99
2022-12-01T19:32:37.330Z,59.03
2022-12-01T19:35:05.118Z,58.82
2022-12-01T19:37:32.605Z,58.70
2022-12-01T19:39:59.741Z,58.50
2022-12-01T19:42:26.771Z,58.86
2022-12-01T19:44:53.807Z,58.55
2022-12-01T19:47:23.957Z,58.22
2022-12-01T19:49:53.764Z,58.70
2022-12-01T19:52:23.441Z,58.67
2022-12-01T19:54:51.356Z,58.04
2022-12-01T19:57:29.314Z,58.03
2022-12-01T20:00:07.968Z,59.33
2022-12-01T20:02:47.919Z,59.49
2022-12-01T20:05:27.677Z,59.58
2022-12-01T20:07:58.024Z,58.76
2022-12-01T20:10:31.560Z,59.40
2022-12-01T20:12:59.489Z,60.72
2022-12-01T20:15:26.868Z,60.51
2022-12-01T20:17:54.253Z,60.71
2022-12-01T20:20:22.821Z,60.59
2022-12-01T20:22:49.943Z,61.26
2022-12-01T20:29:49.572Z,62.07
2022-12-01T20:32:21.990Z,60.82
2022-12-01T20:34:52.169Z,61.28
2022-12-01T20:37:19.643Z,61.38
2022-12-01T20:39:47.604Z,60.77
2022-12-01T20:42:15.080Z,60.95
2022-12-01T20:44:42.202Z,61.44
2022-12-01T20:47:09.273Z,61.17
2022-12-01T20:49:36.283Z,61.13
2022-12-01T20:52:03.674Z,61.58
2022-12-01T20:54:31.523Z,61.78
2022-12-01T20:57:28.350Z,60.67
2022-12-01T20:59:55.416Z,60.46
2022-12-01T21:02:22.630Z,61.10
2022-12-01T21:04:49.964Z,61.22
2022-12-01T21:07:18.101Z,61.06
2022-12-01T21:09:47.624Z,61.83
2022-12-01T21:12:36.537Z,61.19
2022-12-01T21:15:17.922Z,61.90
2022-12-01T21:17:55.484Z,61.76
2022-12-01T21:20:36.081Z,61.80
2022-12-01T21:23:11.791Z,60.99
2022-12-01T21:25:48.273Z,61.16
2022-12-01T21:28:24.261Z,61.02
2022-12-01T21:31:14.817Z,60.20
2022-12-01T21:33:43.221Z,60.56
2022-12-01T21:36:22.407Z,61.05
2022-12-01T21:38:57.532Z,60.86
2022-12-01T21:41:27.504Z,61.26
2022-12-01T21:44:09.232Z,61.37
2022-12-01T21:46:39.004Z,60.90
2022-12-01T21:49:12.944Z,60.19
2022-12-01T21:51:39.923Z,60.34
2022-12-01T21:54:14.247Z,61.18
2022-12-01T21:56:44.256Z,61.62
2022-12-01T21:59:22.473Z,62.01
2022-12-01T22:01:54.139Z,61.85
2022-12-01T22:04:25.809Z,61.07
2022-12-01T22:11:18.897Z,62.23
2022-12-01T22:14:05.125Z,62.57
2022-12-01T22:16:36.543Z,61.84
2022-12-01T22:19:29.249Z,61.81
2022-12-01T22:22:12.036Z,62.18
2022-12-01T22:24:42.414Z,61.54
2022-12-01T22:27:30.079Z,62.34
2022-12-01T22:30:06.742Z,61.67
2022-12-01T22:32:59.552Z,61.71
2022-12-01T22:35:48.507Z,61.75
2022-12-01T22:38:33.938Z,61.35
2022-12-01T22:41:06.904Z,61.32
2022-12-01T22:44:02.237Z,61.93
2022-12-01T22:46:32.323Z,61.70
2022-12-01T22:49:13.972Z,61.65
2022-12-01T22:51:49.017Z,61.52
2022-12-01T22:54:15.968Z,61.30
2022-12-01T23:01:24.894Z,60.79
2022-12-01T23:04:21.382Z,60.61
2022-12-01T23:06:56.139Z,60.66
2022-12-01T23:09:27.574Z,60.25
2022-12-01T23:12:23.650Z,59.28
2022-12-01T23:14:53.940Z,60.51
2022-12-01T23:17:30.286Z,59.73
2022-12-01T23:20:28.213Z,60.33
2022-12-01T23:22:57.398Z,60.57
2022-12-01T23:25:28.181Z,60.81
2022-12-01T23:27:59.426Z,61.94
2022-12-01T23:30:26.614Z,61.19
2022-12-01T23:33:06.743Z,61.52
2022-12-01T23:36:00.413Z,61.64
2022-12-01T23:38:48.111Z,62.08
2022-12-01T23:41:31.162Z,62.48
2022-12-01T23:44:00.777Z,62.69
2022-12-01T23:46:28.492Z,61.88
2022-12-01T23:49:03.738Z,61.56
2022-12-01T23:52:02.355Z,62.07
2022-12-01T23:54:34.900Z,60.80
2022-12-01T23:57:10.642Z,60.86
2022-12-01T23:59:38.452Z,61.63
